Time;durP1;ratioP1;P1;durP2;ratioP2;P2;SDS_P1;SDS_P2;PMS_P1;PMS_P2;Temp;Humidity;BMP_temperature;BMP_pressure;BME280_temperature;BME280_humidity;BME280_pressure;Samples;Min_cycle;Max_cycle;Signal;HPM_P1;HPM_P2
2024/01/14 00:04:09;;;;;;;0.50;0.50;;;3.30;99.90;;;;;;4424292;32;20073;-63
2024/01/14 00:06:35;;;;;;;0.30;0.30;;;3.20;99.90;;;;;;4425499;32;20468;-65
2024/01/14 00:09:01;;;;;;;0.30;0.30;;;3.30;99.90;;;;;;4426336;32;20070;-64
2024/01/14 00:11:26;;;;;;;0.30;0.30;;;3.30;99.90;;;;;;4427107;32;20081;-64
2024/01/14 00:13:52;;;;;;;0.35;0.35;;;3.30;99.90;;;;;;4425963;32;20065;-63
2024/01/14 00:16:17;;;;;;;0.28;0.28;;;3.40;99.90;;;;;;4430602;32;20131;-64
2024/01/14 00:18:43;;;;;;;0.40;0.40;;;3.40;99.90;;;;;;4420971;32;20066;-62
2024/01/14 00:21:08;;;;;;;1.12;0.82;;;3.40;99.90;;;;;;4430094;32;20081;-63
2024/01/14 00:23:34;;;;;;;0.75;0.75;;;3.40;99.90;;;;;;4427694;32;20108;-64
2024/01/14 00:26:00;;;;;;;2.85;1.60;;;3.40;99.90;;;;;;4420315;32;20435;-64
2024/01/14 00:28:25;;;;;;;0.40;0.40;;;3.40;99.90;;;;;;4421034;32;20077;-64
2024/01/14 00:30:52;;;;;;;0.50;0.50;;;3.50;99.90;;;;;;4423813;32;20073;-64
2024/01/14 00:33:17;;;;;;;0.32;0.32;;;3.50;99.90;;;;;;4428238;32;20073;-65
2024/01/14 00:35:43;;;;;;;0.40;0.40;;;3.50;99.90;;;;;;4427563;32;20085;-65
2024/01/14 00:38:08;;;;;;;0.30;0.30;;;3.50;99.90;;;;;;4424967;32;20176;-65
2024/01/14 00:40:34;;;;;;;0.45;0.45;;;3.50;99.90;;;;;;4427823;32;20081;-65
2024/01/14 00:43:00;;;;;;;0.40;0.40;;;3.50;99.90;;;;;;4427090;32;20061;-64
2024/01/14 00:45:26;;;;;;;0.40;0.40;;;3.50;99.90;;;;;;4425235;32;20078;-63
2024/01/14 00:47:51;;;;;;;0.30;0.30;;;3.50;99.90;;;;;;4429257;32;21156;-63
2024/01/14 00:50:17;;;;;;;0.30;0.30;;;3.40;99.90;;;;;;4426483;32;20099;-64
2024/01/14 00:52:42;;;;;;;0.40;0.40;;;3.40;99.90;;;;;;4428588;32;20077;-63
2024/01/14 00:55:09;;;;;;;0.50;0.50;;;3.50;99.90;;;;;;4427681;32;20457;-63
2024/01/14 00:57:34;;;;;;;3.80;1.12;;;3.50;99.90;;;;;;4428446;32;20107;-64
2024/01/14 01:00:00;;;;;;;0.50;0.50;;;3.40;99.90;;;;;;4429008;32;20077;-65
2024/01/14 01:02:25;;;;;;;0.50;0.50;;;3.40;99.90;;;;;;4430554;32;20068;-63
2024/01/14 01:04:51;;;;;;;0.32;0.32;;;3.40;99.90;;;;;;4429646;32;20107;-65
2024/01/14 01:07:16;;;;;;;0.40;0.40;;;3.40;99.90;;;;;;4429586;32;20151;-64
2024/01/14 01:09:42;;;;;;;0.30;0.30;;;3.30;99.90;;;;;;4427280;32;20078;-65
2024/01/14 01:12:07;;;;;;;0.30;0.30;;;3.30;99.90;;;;;;4430391;32;20117;-65
2024/01/14 01:14:33;;;;;;;0.55;0.55;;;3.30;99.90;;;;;;4429718;32;20065;-64
2024/01/14 01:16:59;;;;;;;0.35;0.35;;;3.20;99.90;;;;;;4434485;32;20078;-63
2024/01/14 01:19:24;;;;;;;0.40;0.40;;;3.10;99.90;;;;;;4430343;32;20422;-64
2024/01/14 01:21:51;;;;;;;0.40;0.40;;;3.10;99.90;;;;;;4431987;32;20166;-63
2024/01/14 01:24:16;;;;;;;0.30;0.30;;;3.00;99.90;;;;;;4432887;32;20080;-63
2024/01/14 01:26:42;;;;;;;0.37;0.37;;;3.00;99.90;;;;;;4431620;32;20127;-63
2024/01/14 01:29:07;;;;;;;0.60;0.60;;;2.90;99.90;;;;;;4430028;32;20077;-63
2024/01/14 01:31:33;;;;;;;0.40;0.40;;;2.90;99.90;;;;;;4428984;32;20318;-64
2024/01/14 01:33:59;;;;;;;0.30;0.30;;;3.00;99.90;;;;;;4432049;32;20077;-64
2024/01/14 01:36:24;;;;;;;0.30;0.30;;;3.00;99.90;;;;;;4426847;32;20073;-62
2024/01/14 01:38:50;;;;;;;0.30;0.30;;;2.90;99.90;;;;;;4429394;32;20571;-63
2024/01/14 01:41:15;;;;;;;0.40;0.40;;;2.90;99.90;;;;;;4427658;32;20116;-64
2024/01/14 01:43:41;;;;;;;0.30;0.30;;;2.90;99.90;;;;;;4430804;32;20108;-64
2024/01/14 01:46:07;;;;;;;0.30;0.30;;;2.90;99.90;;;;;;4430379;32;20254;-64
2024/01/14 01:48:33;;;;;;;0.77;0.77;;;2.90;99.90;;;;;;4429875;32;20090;-63
2024/01/14 01:51:00;;;;;;;0.60;0.60;;;2.90;99.90;;;;;;4426319;32;20073;-63
2024/01/14 01:53:26;;;;;;;0.50;0.50;;;2.90;99.90;;;;;;4428362;32;20072;-63
2024/01/14 01:55:52;;;;;;;0.30;0.30;;;2.90;99.90;;;;;;4429828;32;20070;-63
2024/01/14 01:58:18;;;;;;;0.30;0.30;;;2.90;99.90;;;;;;4425620;32;20082;-63
2024/01/14 02:00:44;;;;;;;0.50;0.50;;;2.90;99.90;;;;;;4428272;32;20438;-63
2024/01/14 02:03:11;;;;;;;0.50;0.50;;;2.90;99.90;;;;;;4427897;32;20120;-63
2024/01/14 02:05:40;;;;;;;1.85;0.77;;;2.90;99.90;;;;;;4428409;32;20073;-63
2024/01/14 02:08:07;;;;;;;0.40;0.40;;;2.90;99.90;;;;;;4428734;32;20078;-63
2024/01/14 02:10:32;;;;;;;0.32;0.32;;;2.90;99.90;;;;;;4421366;32;20438;-64
2024/01/14 02:12:58;;;;;;;0.40;0.40;;;2.90;99.90;;;;;;4427081;32;20171;-63
2024/01/14 02:15:23;;;;;;;0.30;0.30;;;2.90;99.90;;;;;;4428065;32;20454;-63
2024/01/14 02:17:49;;;;;;;0.60;0.60;;;2.90;99.90;;;;;;4422597;32;20196;-63
2024/01/14 02:20:15;;;;;;;1.58;0.70;;;3.00;99.90;;;;;;4427924;32;20064;-62
2024/01/14 02:22:44;;;;;;;0.30;0.30;;;2.90;99.90;;;;;;4428112;32;20053;-63
2024/01/14 02:25:11;;;;;;;0.30;0.30;;;2.90;99.90;;;;;;4423955;32;20077;-64
2024/01/14 02:27:37;;;;;;;0.30;0.30;;;3.00;99.90;;;;;;4436884;32;20085;-63
2024/01/14 02:30:03;;;;;;;0.30;0.30;;;2.90;99.90;;;;;;4437583;32;20089;-63
2024/01/14 02:32:29;;;;;;;0.50;0.50;;;3.00;99.90;;;;;;4437663;32;20098;-63
2024/01/14 02:34:54;;;;;;;0.68;0.68;;;2.90;99.90;;;;;;4436229;32;20074;-63
2024/01/14 02:37:20;;;;;;;3.92;1.58;;;2.90;99.90;;;;;;4436273;32;20138;-62
2024/01/14 02:39:46;;;;;;;1.98;1.30;;;2.90;99.90;;;;;;4434210;32;20077;-63
2024/01/14 02:42:12;;;;;;;0.50;0.50;;;2.90;99.90;;;;;;4434403;32;20073;-62
2024/01/14 02:44:37;;;;;;;0.30;0.30;;;2.90;99.90;;;;;;4438477;32;20061;-62
2024/01/14 02:47:03;;;;;;;0.30;0.30;;;2.90;99.90;;;;;;4438266;32;20090;-62
2024/01/14 02:49:28;;;;;;;0.30;0.30;;;2.90;99.90;;;;;;4433104;32;20073;-62
2024/01/14 02:51:55;;;;;;;0.30;0.30;;;2.80;99.90;;;;;;4438757;32;20061;-62
2024/01/14 02:54:20;;;;;;;0.30;0.30;;;2.80;99.90;;;;;;4434303;32;20073;-62
2024/01/14 02:56:45;;;;;;;0.30;0.30;;;2.90;99.90;;;;;;4439310;32;20064;-61
2024/01/14 02:59:11;;;;;;;0.37;0.37;;;2.80;99.90;;;;;;4434856;32;20578;-62
2024/01/14 03:04:06;;;;;;;0.50;0.50;;;2.80;99.90;;;;;;4441225;32;20097;-62
2024/01/14 03:06:32;;;;;;;0.40;0.40;;;2.80;99.90;;;;;;4438393;32;20070;-62
2024/01/14 03:08:57;;;;;;;13.52;1.30;;;2.80;99.90;;;;;;4437879;32;20064;-62
2024/01/14 03:11:22;;;;;;;0.40;0.40;;;2.80;99.90;;;;;;4427965;32;20167;-62
2024/01/14 03:13:48;;;;;;;0.52;0.52;;;2.90;99.90;;;;;;4430457;32;20065;-61
2024/01/14 03:16:13;;;;;;;0.40;0.40;;;2.80;99.90;;;;;;4433503;32;20140;-62
2024/01/14 03:18:39;;;;;;;0.70;0.70;;;2.80;99.90;;;;;;4436822;32;20117;-61
2024/01/14 03:21:04;;;;;;;0.30;0.30;;;2.80;99.90;;;;;;4434171;32;20069;-62
2024/01/14 03:23:30;;;;;;;0.30;0.30;;;2.80;99.90;;;;;;4435900;32;20089;-62
2024/01/14 03:25:55;;;;;;;0.30;0.30;;;2.80;99.90;;;;;;4436425;32;20090;-62
2024/01/14 03:28:21;;;;;;;0.40;0.40;;;2.80;99.90;;;;;;4441479;32;20069;-62
2024/01/14 03:30:46;;;;;;;0.32;0.32;;;2.80;99.90;;;;;;4434530;32;20093;-62
2024/01/14 03:33:12;;;;;;;0.30;0.30;;;2.80;99.90;;;;;;4436444;32;20065;-62
2024/01/14 03:35:37;;;;;;;0.85;0.77;;;2.90;99.90;;;;;;4436203;32;20077;-62
2024/01/14 03:38:03;;;;;;;50.05;1.02;;;2.90;99.90;;;;;;4425271;32;20076;-62
2024/01/14 03:40:28;;;;;;;1.75;1.30;;;2.90;99.90;;;;;;4425506;32;20088;-63
2024/01/14 03:42:54;;;;;;;0.40;0.40;;;2.90;99.90;;;;;;4421678;32;20124;-62
2024/01/14 03:45:19;;;;;;;0.40;0.40;;;2.90;99.90;;;;;;4427529;32;20439;-64
2024/01/14 03:47:45;;;;;;;0.40;0.40;;;2.80;99.90;;;;;;4428892;32;20072;-61
2024/01/14 03:50:10;;;;;;;0.30;0.30;;;2.80;99.90;;;;;;4428848;32;20080;-61
2024/01/14 03:52:35;;;;;;;0.30;0.30;;;2.80;99.90;;;;;;4426856;32;20095;-61
2024/01/14 03:55:01;;;;;;;0.90;0.68;;;2.70;99.90;;;;;;4428928;32;20588;-61
2024/01/14 03:57:26;;;;;;;0.40;0.40;;;2.70;99.90;;;;;;4424635;32;20088;-62
2024/01/14 03:59:52;;;;;;;0.30;0.30;;;2.70;99.90;;;;;;4425248;32;20064;-61
2024/01/14 04:02:17;;;;;;;0.75;0.75;;;2.70;99.90;;;;;;4421252;32;20158;-61
2024/01/14 04:04:43;;;;;;;0.50;0.50;;;2.70;99.90;;;;;;4430059;32;20081;-62
2024/01/14 04:07:08;;;;;;;0.30;0.30;;;2.70;99.90;;;;;;4424260;32;20147;-63
2024/01/14 04:09:34;;;;;;;0.30;0.30;;;2.70;99.90;;;;;;4421538;32;20088;-61
2024/01/14 04:11:59;;;;;;;0.30;0.30;;;2.70;99.90;;;;;;4401282;32;20093;-61
2024/01/14 04:14:25;;;;;;;1.33;0.73;;;2.70;99.90;;;;;;4426811;32;20081;-63
2024/01/14 04:16:50;;;;;;;0.40;0.40;;;2.80;99.90;;;;;;4429783;32;20061;-61
2024/01/14 04:19:15;;;;;;;0.30;0.30;;;2.80;99.90;;;;;;4427005;32;20200;-62
2024/01/14 04:21:41;;;;;;;0.30;0.30;;;2.80;99.90;;;;;;4425590;32;20058;-61
2024/01/14 04:24:07;;;;;;;1.73;0.90;;;2.80;99.90;;;;;;4425136;32;20061;-62
2024/01/14 04:26:33;;;;;;;0.30;0.30;;;2.80;99.90;;;;;;4427132;32;20438;-62
2024/01/14 04:28:58;;;;;;;0.30;0.30;;;2.80;99.90;;;;;;4429791;32;20062;-63
2024/01/14 04:31:24;;;;;;;0.55;0.55;;;2.80;99.90;;;;;;4432260;32;20204;-61
2024/01/14 04:33:49;;;;;;;0.30;0.30;;;2.80;99.90;;;;;;4429153;32;20057;-61
2024/01/14 04:36:15;;;;;;;0.60;0.60;;;2.80;99.90;;;;;;4431682;32;20088;-63
2024/01/14 04:38:41;;;;;;;0.52;0.52;;;2.90;99.90;;;;;;4418219;32;20444;-62
2024/01/14 04:41:07;;;;;;;1.30;1.10;;;2.90;99.90;;;;;;4431519;32;20294;-63
2024/01/14 04:43:32;;;;;;;2.45;0.88;;;2.90;99.90;;;;;;4425688;32;20144;-62
2024/01/14 04:45:58;;;;;;;0.37;0.37;;;2.90;99.90;;;;;;4428482;32;20072;-63
2024/01/14 04:48:23;;;;;;;0.30;0.30;;;2.90;99.90;;;;;;4430297;32;20550;-64
2024/01/14 04:50:50;;;;;;;0.50;0.50;;;2.90;99.90;;;;;;4431921;32;20148;-63
2024/01/14 04:53:16;;;;;;;1.62;1.08;;;2.90;99.90;;;;;;4411090;32;20967;-63
2024/01/14 04:55:41;;;;;;;1.08;0.60;;;2.80;99.90;;;;;;4428910;32;20544;-63
2024/01/14 04:58:07;;;;;;;0.50;0.50;;;2.80;99.90;;;;;;4429060;32;20065;-64
2024/01/14 05:00:32;;;;;;;0.37;0.37;;;2.90;99.90;;;;;;4431619;32;20085;-64
2024/01/14 05:02:57;;;;;;;11.40;4.25;;;2.90;99.90;;;;;;4432253;32;20773;-63
2024/01/14 05:05:23;;;;;;;0.77;0.77;;;2.90;99.90;;;;;;4432454;32;20212;-64
2024/01/14 05:07:49;;;;;;;0.30;0.30;;;2.80;99.90;;;;;;4431178;32;20065;-63
2024/01/14 05:10:14;;;;;;;8.05;0.93;;;2.90;99.90;;;;;;4425268;32;20144;-63
2024/01/14 05:12:40;;;;;;;0.85;0.85;;;2.90;99.90;;;;;;4428470;32;20061;-63
2024/01/14 05:15:05;;;;;;;0.40;0.40;;;2.90;99.90;;;;;;4429083;32;20111;-63
2024/01/14 05:17:32;;;;;;;0.50;0.50;;;2.90;99.90;;;;;;4433206;32;20073;-63
2024/01/14 05:19:57;;;;;;;0.32;0.32;;;2.90;99.90;;;;;;4424255;32;20184;-63
2024/01/14 05:22:23;;;;;;;1.02;0.68;;;2.90;99.90;;;;;;4429008;32;20169;-64
2024/01/14 05:24:52;;;;;;;0.40;0.40;;;2.90;99.90;;;;;;4423891;32;20114;-63
2024/01/14 05:27:17;;;;;;;0.90;0.73;;;2.90;99.90;;;;;;4425724;32;20060;-63
2024/01/14 05:29:43;;;;;;;0.52;0.52;;;3.00;99.90;;;;;;4428858;32;20433;-63
2024/01/14 05:32:14;;;;;;;0.30;0.30;;;3.00;99.90;;;;;;4425786;32;20086;-63
2024/01/14 05:34:40;;;;;;;0.60;0.60;;;3.00;99.90;;;;;;4431267;32;20077;-64
2024/01/14 05:37:06;;;;;;;1.12;1.05;;;2.90;99.90;;;;;;4431223;32;20069;-63
2024/01/14 05:39:33;;;;;;;0.40;0.40;;;2.90;99.90;;;;;;4419607;32;20545;-63
2024/01/14 05:41:59;;;;;;;0.55;0.55;;;2.90;99.90;;;;;;4420660;32;20102;-63
2024/01/14 05:44:24;;;;;;;0.30;0.30;;;2.90;99.90;;;;;;4432123;32;20199;-63
2024/01/14 05:46:51;;;;;;;0.68;0.68;;;3.00;99.90;;;;;;4432857;32;20789;-63
2024/01/14 05:49:16;;;;;;;0.30;0.30;;;3.00;99.90;;;;;;4428803;32;20073;-63
2024/01/14 05:51:42;;;;;;;0.40;0.40;;;3.00;99.90;;;;;;4429500;32;20525;-63
2024/01/14 05:56:33;;;;;;;0.30;0.30;;;3.00;99.90;;;;;;4439050;32;20046;-63
2024/01/14 05:59:00;;;;;;;0.45;0.45;;;2.90;99.90;;;;;;4437927;32;20092;-62
2024/01/14 06:01:27;;;;;;;0.30;0.30;;;2.90;99.90;;;;;;4437204;32;20081;-61
2024/01/14 06:03:52;;;;;;;0.60;0.60;;;2.90;99.90;;;;;;4436026;32;20074;-62
2024/01/14 06:06:18;;;;;;;0.30;0.30;;;2.90;99.90;;;;;;4440436;32;20053;-62
2024/01/14 06:08:44;;;;;;;10.70;1.48;;;2.90;99.90;;;;;;4439045;32;20085;-62
2024/01/14 06:11:12;;;;;;;0.30;0.30;;;2.90;99.90;;;;;;4440024;32;20090;-62
2024/01/14 06:13:37;;;;;;;0.40;0.40;;;2.90;99.90;;;;;;4436097;32;20076;-61
2024/01/14 06:16:03;;;;;;;0.40;0.40;;;2.90;99.90;;;;;;4437701;32;20065;-60
2024/01/14 06:18:29;;;;;;;0.40;0.40;;;2.90;99.90;;;;;;4438688;32;20077;-61
2024/01/14 06:21:01;;;;;;;0.40;0.40;;;2.90;99.90;;;;;;4438494;32;20133;-62
2024/01/14 06:23:28;;;;;;;1.40;1.00;;;2.90;99.90;;;;;;4438116;32;20131;-61
2024/01/14 06:25:53;;;;;;;0.30;0.30;;;2.90;99.90;;;;;;4435374;32;20081;-62
2024/01/14 06:28:19;;;;;;;0.30;0.30;;;2.90;99.90;;;;;;4434278;32;20089;-61
2024/01/14 06:30:44;;;;;;;0.52;0.52;;;2.90;99.90;;;;;;4435288;32;20082;-61
2024/01/14 06:33:10;;;;;;;0.60;0.60;;;3.00;99.90;;;;;;4439281;32;20128;-62
2024/01/14 06:35:36;;;;;;;0.35;0.35;;;2.90;99.90;;;;;;4435848;32;20076;-61
2024/01/14 06:38:02;;;;;;;0.80;0.75;;;2.90;99.90;;;;;;4430892;32;20081;-62
2024/01/14 06:40:27;;;;;;;0.35;0.35;;;2.90;99.90;;;;;;4438270;32;20073;-61
2024/01/14 06:42:53;;;;;;;0.30;0.30;;;2.90;99.90;;;;;;4437847;32;20082;-61
2024/01/14 06:45:18;;;;;;;0.43;0.43;;;2.80;99.90;;;;;;4440536;32;20072;-62
2024/01/14 06:47:44;;;;;;;1.08;0.82;;;2.90;99.90;;;;;;4440550;32;20419;-61
2024/01/14 06:50:10;;;;;;;0.50;0.50;;;2.90;99.90;;;;;;4431198;32;20074;-62
2024/01/14 06:52:37;;;;;;;2.35;1.15;;;2.90;99.90;;;;;;4434832;32;20097;-61
2024/01/14 06:55:04;;;;;;;0.30;0.30;;;2.80;99.90;;;;;;4436260;32;20061;-63
2024/01/14 06:57:30;;;;;;;0.65;0.65;;;2.70;99.90;;;;;;4438254;32;20089;-62
2024/01/14 06:59:55;;;;;;;0.40;0.40;;;2.70;99.90;;;;;;4437552;32;20090;-64
2024/01/14 07:02:21;;;;;;;0.40;0.40;;;2.70;99.90;;;;;;4437798;32;20128;-62
2024/01/14 07:04:46;;;;;;;0.50;0.50;;;2.70;99.90;;;;;;4441112;32;20077;-61
2024/01/14 07:07:12;;;;;;;0.40;0.40;;;2.70;99.90;;;;;;4429542;32;20427;-61
2024/01/14 07:09:38;;;;;;;0.40;0.40;;;2.70;99.90;;;;;;4427112;32;20073;-63
2024/01/14 07:12:04;;;;;;;2.92;2.05;;;2.70;99.90;;;;;;4429033;32;20544;-61
2024/01/14 07:14:29;;;;;;;1.45;1.10;;;2.80;99.90;;;;;;4428172;32;20074;-62
2024/01/14 07:16:55;;;;;;;0.47;0.47;;;2.70;99.90;;;;;;4426459;32;20097;-62
2024/01/14 07:19:21;;;;;;;1.27;0.95;;;2.70;99.90;;;;;;4426494;32;20077;-62
2024/01/14 07:21:46;;;;;;;0.40;0.40;;;2.80;99.90;;;;;;4428373;32;20080;-61
2024/01/14 07:24:12;;;;;;;0.40;0.40;;;2.80;99.90;;;;;;4426154;32;20068;-62
2024/01/14 07:26:38;;;;;;;1.45;0.80;;;2.70;99.90;;;;;;4428979;32;20089;-62
2024/01/14 07:29:03;;;;;;;0.30;0.30;;;2.70;99.90;;;;;;4427113;32;20207;-61
2024/01/14 07:31:30;;;;;;;0.40;0.40;;;2.80;99.90;;;;;;4421027;32;20110;-60
2024/01/14 07:33:57;;;;;;;0.60;0.60;;;2.80;99.90;;;;;;4424665;32;20090;-61
2024/01/14 07:36:22;;;;;;;0.30;0.30;;;2.80;99.90;;;;;;4414901;32;20283;-61
2024/01/14 07:38:49;;;;;;;1.02;0.93;;;2.80;99.90;;;;;;4428691;32;20150;-62
2024/01/14 07:41:15;;;;;;;0.68;0.68;;;2.80;99.90;;;;;;4427126;32;20058;-61
2024/01/14 07:43:41;;;;;;;0.40;0.40;;;2.80;99.90;;;;;;4426401;32;20076;-61
2024/01/14 07:46:07;;;;;;;0.30;0.30;;;2.80;99.90;;;;;;4415199;32;20080;-62
2024/01/14 07:48:33;;;;;;;0.30;0.30;;;2.80;99.90;;;;;;4422422;32;20061;-61
2024/01/14 07:51:00;;;;;;;0.30;0.30;;;2.90;99.90;;;;;;4420159;32;20076;-61
2024/01/14 07:53:25;;;;;;;0.30;0.30;;;2.80;99.90;;;;;;4427498;32;20072;-61
2024/01/14 07:55:51;;;;;;;0.40;0.40;;;2.80;99.90;;;;;;4422067;32;20077;-61
2024/01/14 07:58:17;;;;;;;0.32;0.32;;;2.80;99.90;;;;;;4429190;32;20591;-63
2024/01/14 08:00:44;;;;;;;0.30;0.30;;;2.80;99.90;;;;;;4420325;32;20245;-62
2024/01/14 08:03:09;;;;;;;0.40;0.40;;;2.90;99.90;;;;;;4422397;32;20454;-62
2024/01/14 08:05:36;;;;;;;0.32;0.32;;;2.90;99.90;;;;;;4428262;32;20123;-60
2024/01/14 08:08:03;;;;;;;0.40;0.40;;;2.90;99.90;;;;;;4419483;32;20115;-62
2024/01/14 08:10:28;;;;;;;0.40;0.40;;;2.90;99.90;;;;;;4426727;32;20116;-61
2024/01/14 08:12:54;;;;;;;4.57;1.12;;;2.90;99.90;;;;;;4427594;32;20423;-62
2024/01/14 08:15:19;;;;;;;0.43;0.43;;;3.00;99.90;;;;;;4429535;32;20057;-62
2024/01/14 08:17:44;;;;;;;0.47;0.47;;;3.00;99.90;;;;;;4427074;32;20069;-61
2024/01/14 08:20:11;;;;;;;0.30;0.30;;;3.00;99.90;;;;;;4425590;32;20107;-63
2024/01/14 08:22:37;;;;;;;0.40;0.40;;;3.00;99.90;;;;;;4420741;32;20075;-60
2024/01/14 08:25:04;;;;;;;1.23;0.55;;;3.00;99.90;;;;;;4425024;32;20785;-62
2024/01/14 08:27:30;;;;;;;0.60;0.60;;;3.00;99.90;;;;;;4424326;32;20132;-63
2024/01/14 08:29:55;;;;;;;0.30;0.30;;;3.00;99.90;;;;;;4428016;32;20192;-62
2024/01/14 08:32:21;;;;;;;0.32;0.32;;;3.00;99.90;;;;;;4420417;32;20474;-63
2024/01/14 08:34:47;;;;;;;2.00;1.45;;;3.00;99.90;;;;;;4426685;32;20544;-62
2024/01/14 08:37:12;;;;;;;0.85;0.82;;;3.00;99.90;;;;;;4426248;32;20082;-63
2024/01/14 08:39:37;;;;;;;3.55;1.15;;;3.10;99.90;;;;;;4423641;32;20557;-61
2024/01/14 08:42:03;;;;;;;0.32;0.32;;;3.10;99.90;;;;;;4425900;32;20178;-62
2024/01/14 08:44:28;;;;;;;0.50;0.50;;;3.10;99.90;;;;;;4427282;32;20436;-62
2024/01/14 08:46:54;;;;;;;0.30;0.30;;;3.10;99.90;;;;;;4429118;32;20070;-62
2024/01/14 08:49:20;;;;;;;0.40;0.40;;;3.10;99.90;;;;;;4419951;32;20058;-62
2024/01/14 08:51:45;;;;;;;0.30;0.30;;;3.10;99.90;;;;;;4424965;32;20123;-61
2024/01/14 08:54:11;;;;;;;0.30;0.30;;;3.20;99.90;;;;;;4419283;32;20090;-63
2024/01/14 08:56:36;;;;;;;0.50;0.50;;;3.20;99.90;;;;;;4420848;32;20210;-60
2024/01/14 08:59:02;;;;;;;0.40;0.40;;;3.20;99.90;;;;;;4424860;32;20116;-61
2024/01/14 09:01:27;;;;;;;0.40;0.40;;;3.20;99.90;;;;;;4423919;32;20465;-61
2024/01/14 09:03:53;;;;;;;0.30;0.30;;;3.30;99.90;;;;;;4426758;32;20102;-62
2024/01/14 09:06:19;;;;;;;0.40;0.40;;;3.20;99.90;;;;;;4422861;32;20132;-60
2024/01/14 09:08:44;;;;;;;0.30;0.30;;;3.20;99.90;;;;;;4427989;32;20161;-61
2024/01/14 09:11:10;;;;;;;0.30;0.30;;;3.30;99.90;;;;;;4428567;32;20073;-62
2024/01/14 09:13:35;;;;;;;0.30;0.30;;;3.30;99.90;;;;;;4428907;32;20150;-61
2024/01/14 09:16:02;;;;;;;0.30;0.30;;;3.30;99.90;;;;;;4423533;32;20087;-62
2024/01/14 09:18:27;;;;;;;0.30;0.30;;;3.40;99.90;;;;;;4426261;32;20085;-61
2024/01/14 09:20:52;;;;;;;0.82;0.82;;;3.30;99.90;;;;;;4428321;32;20068;-63
2024/01/14 09:23:18;;;;;;;0.40;0.40;;;3.30;99.90;;;;;;4429825;32;20112;-61
2024/01/14 09:25:45;;;;;;;0.40;0.40;;;3.30;99.90;;;;;;4431523;32;20065;-64
2024/01/14 09:28:10;;;;;;;0.30;0.30;;;3.40;99.90;;;;;;4423731;32;20073;-65
2024/01/14 09:30:36;;;;;;;0.30;0.30;;;3.40;99.90;;;;;;4431226;32;20085;-63
2024/01/14 09:33:03;;;;;;;0.30;0.30;;;3.40;99.90;;;;;;4431114;32;20151;-64
2024/01/14 09:35:28;;;;;;;0.30;0.30;;;3.40;99.90;;;;;;4430103;32;20206;-64
2024/01/14 09:37:54;;;;;;;0.40;0.40;;;3.30;99.90;;;;;;4427650;32;20085;-63
2024/01/14 09:40:21;;;;;;;0.40;0.40;;;3.30;99.90;;;;;;4427317;32;20128;-63
2024/01/14 09:42:50;;;;;;;0.62;0.62;;;3.40;99.90;;;;;;4429141;32;20076;-63
2024/01/14 09:45:16;;;;;;;0.40;0.40;;;3.40;99.90;;;;;;4428340;32;20074;-63
2024/01/14 09:47:44;;;;;;;0.40;0.40;;;3.40;99.90;;;;;;4424429;32;20513;-63
2024/01/14 09:50:10;;;;;;;0.30;0.30;;;3.40;99.90;;;;;;4432278;32;20077;-63
2024/01/14 09:52:39;;;;;;;0.30;0.30;;;3.40;99.90;;;;;;4427704;32;20224;-64
2024/01/14 09:55:05;;;;;;;0.30;0.30;;;3.40;99.90;;;;;;4431433;32;20085;-63
2024/01/14 09:57:34;;;;;;;0.30;0.30;;;3.50;99.90;;;;;;4428485;32;20090;-62
2024/01/14 10:00:04;;;;;;;0.47;0.47;;;3.50;99.90;;;;;;4432611;32;20076;-63
2024/01/14 10:02:32;;;;;;;2.17;1.40;;;3.60;99.90;;;;;;4431550;32;20093;-63
2024/01/14 10:04:58;;;;;;;0.40;0.40;;;3.60;99.90;;;;;;4427153;32;20119;-63
2024/01/14 10:07:25;;;;;;;0.60;0.60;;;3.60;99.90;;;;;;4425449;32;20124;-62
2024/01/14 10:09:52;;;;;;;0.30;0.30;;;3.60;99.90;;;;;;4430698;32;20077;-64
2024/01/14 10:12:18;;;;;;;0.40;0.40;;;3.60;99.90;;;;;;4432356;32;20061;-63
2024/01/14 10:14:44;;;;;;;0.30;0.30;;;3.60;99.90;;;;;;4433330;32;20968;-63
2024/01/14 10:17:13;;;;;;;0.50;0.50;;;3.60;99.90;;;;;;4431139;32;20192;-64
2024/01/14 10:19:39;;;;;;;1.00;0.93;;;3.60;99.90;;;;;;4424464;32;20065;-63
2024/01/14 10:22:06;;;;;;;1.25;1.15;;;3.60;99.90;;;;;;4429937;32;20081;-64
2024/01/14 10:24:32;;;;;;;0.20;0.20;;;3.60;99.90;;;;;;4428662;32;20090;-64
2024/01/14 10:26:58;;;;;;;0.30;0.30;;;3.70;99.90;;;;;;4428819;32;20080;-63
2024/01/14 10:29:24;;;;;;;1.08;0.82;;;3.60;99.90;;;;;;4427933;32;20093;-62
2024/01/14 10:31:50;;;;;;;0.30;0.30;;;3.50;99.90;;;;;;4422781;32;20096;-63
2024/01/14 10:34:17;;;;;;;0.40;0.40;;;3.60;99.90;;;;;;4430117;32;20060;-63
2024/01/14 10:36:43;;;;;;;4.47;1.20;;;3.70;99.90;;;;;;4427024;32;20136;-60
2024/01/14 10:39:11;;;;;;;0.40;0.40;;;3.80;99.90;;;;;;4410540;32;20516;-62
2024/01/14 10:41:36;;;;;;;0.30;0.30;;;3.80;99.90;;;;;;4423741;32;20156;-63
2024/01/14 10:44:02;;;;;;;0.35;0.35;;;3.80;99.90;;;;;;4419672;32;20128;-61
2024/01/14 10:46:31;;;;;;;0.82;0.43;;;3.80;99.90;;;;;;4429074;32;20053;-62
2024/01/14 10:49:04;;;;;;;0.25;0.25;;;3.90;99.90;;;;;;4431475;32;20074;-62
2024/01/14 10:51:31;;;;;;;4.57;1.52;;;3.90;99.90;;;;;;4429136;32;20113;-64
2024/01/14 10:54:24;;;;;;;0.30;0.30;;;3.90;99.90;;;;;;4432309;32;20076;-61
2024/01/14 10:57:01;;;;;;;0.37;0.37;;;3.90;99.90;;;;;;4422436;32;20101;-61
2024/01/14 10:59:28;;;;;;;1.08;0.62;;;4.00;99.90;;;;;;4428310;32;20082;-62
2024/01/14 11:01:57;;;;;;;0.40;0.40;;;4.00;99.90;;;;;;4428222;32;20386;-61
2024/01/14 11:04:25;;;;;;;0.30;0.30;;;4.00;99.90;;;;;;4423636;32;20065;-62
2024/01/14 11:06:55;;;;;;;0.30;0.30;;;4.00;99.90;;;;;;4429267;32;20447;-61
2024/01/14 11:09:21;;;;;;;0.50;0.50;;;3.90;99.90;;;;;;4430126;32;20485;-62
2024/01/14 11:11:55;;;;;;;0.30;0.30;;;4.00;99.90;;;;;;4421329;32;20065;-64
2024/01/14 11:14:28;;;;;;;0.50;0.50;;;4.00;99.90;;;;;;4423861;32;20061;-62
2024/01/14 11:17:03;;;;;;;0.40;0.40;;;4.00;99.90;;;;;;4423457;32;20073;-65
2024/01/14 11:19:33;;;;;;;0.30;0.30;;;4.00;99.90;;;;;;4427815;32;20116;-62
2024/01/14 11:22:18;;;;;;;4.20;1.50;;;4.00;99.90;;;;;;4421689;32;20078;-63
2024/01/14 11:24:44;;;;;;;0.20;0.20;;;4.00;99.90;;;;;;4412525;32;20699;-62
2024/01/14 11:27:09;;;;;;;0.30;0.30;;;4.00;99.90;;;;;;4421323;32;20077;-62
2024/01/14 11:29:36;;;;;;;0.30;0.30;;;4.00;99.90;;;;;;4426710;32;20207;-61
2024/01/14 11:32:04;;;;;;;0.35;0.35;;;4.00;99.90;;;;;;4426485;32;20131;-63
2024/01/14 11:34:50;;;;;;;0.30;0.30;;;4.00;99.90;;;;;;4425154;32;20069;-62
2024/01/14 11:37:37;;;;;;;0.47;0.47;;;4.00;99.90;;;;;;4421651;32;20608;-61
2024/01/14 11:40:08;;;;;;;0.43;0.43;;;3.90;99.90;;;;;;4421579;32;20070;-62
2024/01/14 11:42:36;;;;;;;0.40;0.40;;;4.00;99.90;;;;;;4423190;32;20057;-63
2024/01/14 11:45:03;;;;;;;0.30;0.30;;;3.90;99.90;;;;;;4421903;32;20186;-62
2024/01/14 11:47:36;;;;;;;0.30;0.30;;;3.90;99.90;;;;;;4428608;32;20100;-63
2024/01/14 11:50:04;;;;;;;0.50;0.50;;;3.90;99.90;;;;;;4427100;32;20105;-62
2024/01/14 11:52:29;;;;;;;0.30;0.30;;;3.90;99.90;;;;;;4424509;32;80155;-63
2024/01/14 11:54:54;;;;;;;0.30;0.30;;;3.90;99.90;;;;;;4428414;32;20456;-62
2024/01/14 11:57:23;;;;;;;0.32;0.32;;;3.90;99.90;;;;;;4426697;32;20128;-62
2024/01/14 11:59:49;;;;;;;1.25;1.10;;;3.90;99.90;;;;;;4428711;32;20073;-64
2024/01/14 12:02:15;;;;;;;0.30;0.30;;;3.90;99.90;;;;;;4428794;32;20073;-64
2024/01/14 12:04:41;;;;;;;0.57;0.57;;;3.90;99.90;;;;;;4426655;32;20089;-62
2024/01/14 12:07:06;;;;;;;0.30;0.30;;;4.00;99.90;;;;;;4429053;32;20057;-61
2024/01/14 12:09:32;;;;;;;0.40;0.40;;;4.10;99.90;;;;;;4425129;32;20471;-63
2024/01/14 12:11:57;;;;;;;0.30;0.30;;;4.10;99.90;;;;;;4421982;32;20073;-62
2024/01/14 12:14:23;;;;;;;0.30;0.30;;;4.20;99.90;;;;;;4428858;32;20545;-62
2024/01/14 12:16:48;;;;;;;0.30;0.30;;;4.20;99.90;;;;;;4428619;32;20073;-63
2024/01/14 12:19:19;;;;;;;0.40;0.40;;;4.10;99.90;;;;;;4429365;32;20601;-61
2024/01/14 12:21:44;;;;;;;0.40;0.40;;;4.10;99.90;;;;;;4420330;32;20078;-64
2024/01/14 12:24:11;;;;;;;0.43;0.43;;;4.10;99.90;;;;;;4419708;32;20547;-61
2024/01/14 12:26:37;;;;;;;0.73;0.73;;;4.20;99.90;;;;;;4420242;32;20070;-63
2024/01/14 12:29:03;;;;;;;0.30;0.30;;;4.30;99.90;;;;;;4426045;32;20434;-63
2024/01/14 12:31:32;;;;;;;0.30;0.30;;;4.30;99.90;;;;;;4428229;32;20078;-62
2024/01/14 12:34:02;;;;;;;0.95;0.82;;;4.20;99.90;;;;;;4427226;32;20074;-63
2024/01/14 12:36:28;;;;;;;0.40;0.40;;;4.20;99.90;;;;;;4427957;32;20053;-62
2024/01/14 12:38:54;;;;;;;0.40;0.40;;;4.10;99.90;;;;;;4426372;32;20102;-61
2024/01/14 12:41:19;;;;;;;4.85;1.02;;;4.00;99.90;;;;;;4426100;32;20532;-63
2024/01/14 12:43:45;;;;;;;0.50;0.50;;;3.90;99.90;;;;;;4422590;32;20503;-62
2024/01/14 12:46:10;;;;;;;2.92;2.05;;;3.90;99.90;;;;;;4427482;32;20050;-61
2024/01/14 12:48:36;;;;;;;0.62;0.62;;;3.80;99.90;;;;;;4427999;32;20098;-61
2024/01/14 12:51:03;;;;;;;0.50;0.50;;;3.80;99.90;;;;;;4426605;32;20061;-62
2024/01/14 12:53:31;;;;;;;0.30;0.30;;;3.80;99.90;;;;;;4429766;32;20600;-65
2024/01/14 12:56:13;;;;;;;0.30;0.30;;;3.80;99.90;;;;;;4421653;32;20549;-63
2024/01/14 12:58:39;;;;;;;0.40;0.40;;;3.80;99.90;;;;;;4430122;32;20065;-62
2024/01/14 13:01:05;;;;;;;0.47;0.47;;;3.80;99.90;;;;;;4432246;32;20175;-62